Hauptseite
METAR-TAF:

METAR-TAF

Flughäfen :

Franklin County, Vermont, Vereinigte Staaten

Breite: 44-56-25N, Länge: 073-05-51W, Höhe: 69 m

Beobachtung

Neuester Wetterbericht von vor 26 Minuten, um 09:55 UTC
Wind 4 kt aus Süd/Südwest
Temperatur 23°C
Luftfeuchtigkeit 78%
Luftdruck 1020 hPa
Sichtweite: 16.1 km
Himmel klar

METAR: KFSO 270955Z AUTO 20004KT 10SM CLR 23/19 A3011 RMK AO2 T02320186

Zeit: 06:21 (10:21 UTC)


TAF: fehlend

Wetterbeobachtungen und Prognosen von mehr als 4000 Flughäfen (METAR und TAF Bericht).

Die verfügbaren Stationen werden durch gelbe und rote Markierungen auf der Karte dargestellt.

Führen Sie die Maus auf sie, um den Namen der Station zu sehen.

Darauf klicken, um die Beobachtung von Wetterbeobachtungen und Prognosen zu sehen.

Um die Karte zu ändern : klicken Sie auf den grünen Tasten mit einem schwarzen Kreuz Zum Vergrößern, auf den grünen Button mit einem Gedankenstrich zu verkleinern, oder auf die grünen Pfeile für benachbarte Karten.


METAR-TAF: